createdAt,value
2018-07-16T00:01:14.384Z,17.42
2018-07-16T00:02:13.388Z,17.39
2018-07-16T00:03:13.388Z,17.36
2018-07-16T00:03:52.390Z,17.28
2018-07-16T00:04:51.987Z,17.36
2018-07-16T00:06:13.888Z,17.39
2018-07-16T00:08:24.385Z,17.39
2018-07-16T00:09:24.390Z,17.25
2018-07-16T00:10:24.392Z,17.30
2018-07-16T00:11:24.017Z,17.33
2018-07-16T00:12:45.906Z,17.30
2018-07-16T00:13:24.893Z,17.33
2018-07-16T00:14:45.918Z,17.30
2018-07-16T00:15:26.353Z,17.25
2018-07-16T00:16:48.393Z,17.27
2018-07-16T00:17:39.392Z,17.17
2018-07-16T00:18:25.392Z,17.09
2018-07-16T00:20:57.139Z,17.20
2018-07-16T00:21:57.146Z,17.15
2018-07-16T00:22:57.145Z,17.09
2018-07-16T00:23:57.653Z,17.07
2018-07-16T00:24:57.647Z,17.20
2018-07-16T00:25:57.646Z,17.20
2018-07-16T00:26:57.646Z,17.22
2018-07-16T00:31:01.349Z,17.20
2018-07-16T00:32:01.359Z,17.10
2018-07-16T00:33:22.359Z,17.15
2018-07-16T00:35:33.106Z,17.12
2018-07-16T00:36:33.117Z,17.15
2018-07-16T00:37:33.113Z,17.15
2018-07-16T00:40:04.936Z,17.18
2018-07-16T00:41:04.888Z,17.05
2018-07-16T00:42:04.888Z,17.03
2018-07-16T00:44:36.633Z,17.02
2018-07-16T00:45:59.572Z,17.03
2018-07-16T00:46:36.639Z,16.91
2018-07-16T00:51:00.815Z,16.95
2018-07-16T00:51:39.821Z,16.96
2018-07-16T00:54:11.448Z,17.00
2018-07-16T00:55:11.462Z,17.02
2018-07-16T00:56:32.468Z,17.06
2018-07-16T00:57:11.956Z,16.99
2018-07-16T00:58:11.955Z,16.92
2018-07-16T00:59:12.956Z,17.00
2018-07-16T01:00:32.956Z,16.96
2018-07-16T01:01:33.455Z,16.85
2018-07-16T01:02:11.682Z,16.88
2018-07-16T01:03:12.456Z,16.85
2018-07-16T01:04:12.456Z,16.82
2018-07-16T01:05:12.963Z,16.81
2018-07-16T01:06:33.963Z,16.87
2018-07-16T01:07:12.336Z,16.82
2018-07-16T01:08:12.956Z,16.85
2018-07-16T01:09:13.481Z,16.81
2018-07-16T01:10:13.456Z,16.77
2018-07-16T01:11:12.805Z,16.80
2018-07-16T01:12:13.460Z,16.80
2018-07-16T01:13:13.956Z,16.85
2018-07-16T01:14:13.968Z,16.80
2018-07-16T01:15:13.956Z,16.81
2018-07-16T01:16:13.961Z,16.82
2018-07-16T01:17:13.561Z,16.65
2018-07-16T01:18:14.456Z,16.69
2018-07-16T01:19:14.455Z,16.66
2018-07-16T01:20:14.457Z,16.70
2018-07-16T01:21:14.055Z,16.73
2018-07-16T01:22:14.997Z,16.67
2018-07-16T01:23:14.955Z,16.72
2018-07-16T01:24:14.977Z,16.66
2018-07-16T01:25:14.575Z,16.77
2018-07-16T01:26:15.456Z,16.78
2018-07-16T01:27:36.455Z,16.69
2018-07-16T01:28:15.455Z,16.69
2018-07-16T01:29:15.955Z,16.73
2018-07-16T01:30:15.952Z,16.70
2018-07-16T01:31:15.954Z,16.65
2018-07-16T01:32:15.961Z,16.69
2018-07-16T01:33:16.476Z,16.65
2018-07-16T01:34:30.476Z,16.59
2018-07-16T01:35:16.457Z,16.60
2018-07-16T01:36:40.887Z,16.62
2018-07-16T01:37:16.956Z,16.55
2018-07-16T01:39:48.325Z,16.59
2018-07-16T01:40:48.337Z,16.51
2018-07-16T01:41:48.830Z,16.45
2018-07-16T01:42:50.266Z,16.54
2018-07-16T01:43:49.765Z,16.41
2018-07-16T01:44:50.827Z,16.47
2018-07-16T01:45:48.833Z,16.47
2018-07-16T01:46:48.437Z,16.48
2018-07-16T01:47:49.390Z,16.48
2018-07-16T01:48:49.333Z,16.44
2018-07-16T01:49:49.332Z,16.50
2018-07-16T01:50:49.332Z,16.44
2018-07-16T01:51:50.765Z,16.42
2018-07-16T01:54:21.233Z,16.37
2018-07-16T01:55:21.242Z,16.37
2018-07-16T01:56:21.235Z,16.45
2018-07-16T01:57:21.738Z,16.44
2018-07-16T01:58:21.739Z,16.36
2018-07-16T01:59:21.745Z,16.40
2018-07-16T02:00:21.736Z,16.37
2018-07-16T02:01:49.243Z,16.29
2018-07-16T02:02:28.261Z,16.29
2018-07-16T02:03:22.236Z,16.25
2018-07-16T02:04:22.241Z,16.41
2018-07-16T02:05:22.735Z,16.33
2018-07-16T02:06:23.681Z,16.34
2018-07-16T02:07:22.736Z,16.37
2018-07-16T02:08:43.735Z,16.29
2018-07-16T02:09:22.743Z,16.25
2018-07-16T02:10:29.237Z,16.27
2018-07-16T02:11:23.239Z,16.26
2018-07-16T02:12:23.235Z,16.25
2018-07-16T02:13:23.235Z,16.27
2018-07-16T02:17:26.428Z,16.22
2018-07-16T02:18:26.476Z,16.25
2018-07-16T02:19:26.436Z,16.22
2018-07-16T02:20:26.440Z,16.17
2018-07-16T02:23:19.196Z,16.04
2018-07-16T02:23:58.208Z,15.93
2018-07-16T02:24:58.210Z,16.01
2018-07-16T02:25:58.703Z,15.93
2018-07-16T02:26:57.952Z,15.99
2018-07-16T02:27:58.709Z,16.14
2018-07-16T02:28:58.704Z,16.14
2018-07-16T02:29:59.205Z,16.11
2018-07-16T02:31:20.204Z,16.03
2018-07-16T02:31:59.204Z,15.96
2018-07-16T02:32:59.199Z,15.96
2018-07-16T02:33:59.708Z,16.03
2018-07-16T02:34:58.925Z,16.11
2018-07-16T02:35:59.710Z,16.04
2018-07-16T02:36:59.704Z,16.06
2018-07-16T02:37:59.308Z,16.07
2018-07-16T02:39:00.204Z,16.06
2018-07-16T02:40:00.208Z,15.95
2018-07-16T02:41:00.204Z,15.98
2018-07-16T02:42:00.704Z,15.98
2018-07-16T02:43:00.714Z,16.07
2018-07-16T02:44:00.701Z,15.95
2018-07-16T02:45:00.199Z,15.93
2018-07-16T02:46:01.204Z,15.92
2018-07-16T02:47:22.205Z,15.88
2018-07-16T02:48:01.207Z,15.89
2018-07-16T02:49:01.216Z,15.89
2018-07-16T02:51:33.019Z,16.01
2018-07-16T02:54:04.508Z,16.01
2018-07-16T02:55:04.516Z,15.98
2018-07-16T02:56:04.517Z,15.99
2018-07-16T02:57:05.016Z,15.93
2018-07-16T02:58:05.015Z,15.93
2018-07-16T02:59:05.013Z,15.91
2018-07-16T03:00:08.950Z,15.93
2018-07-16T03:01:05.515Z,15.99
2018-07-16T03:02:05.515Z,15.95
2018-07-16T03:03:05.516Z,15.95
2018-07-16T03:04:05.519Z,16.01
2018-07-16T03:05:05.516Z,16.01
2018-07-16T03:06:06.022Z,15.96
2018-07-16T03:07:05.254Z,16.04
2018-07-16T03:08:06.016Z,15.99
2018-07-16T03:09:06.015Z,15.95
2018-07-16T03:11:58.770Z,15.93
2018-07-16T03:12:37.777Z,15.89
2018-07-16T03:13:37.775Z,15.84
2018-07-16T03:14:59.287Z,15.77
2018-07-16T03:15:41.209Z,15.78
2018-07-16T03:16:39.709Z,15.86
2018-07-16T03:17:38.279Z,15.84
2018-07-16T03:18:37.877Z,15.91
2018-07-16T03:19:59.777Z,15.91
2018-07-16T03:20:59.778Z,15.91
2018-07-16T03:21:38.253Z,15.89
2018-07-16T03:24:10.535Z,16.03
2018-07-16T03:25:31.541Z,15.96
2018-07-16T03:26:31.541Z,15.91
2018-07-16T03:30:13.744Z,15.88
2018-07-16T03:31:13.750Z,15.86
2018-07-16T03:32:13.753Z,15.89
2018-07-16T03:33:14.250Z,15.92
2018-07-16T03:34:14.250Z,15.91
2018-07-16T03:35:14.252Z,15.91
2018-07-16T03:36:14.250Z,15.95
2018-07-16T03:37:14.750Z,15.92
2018-07-16T03:38:14.750Z,15.91
2018-07-16T03:39:14.750Z,15.89
2018-07-16T03:40:14.749Z,15.96
2018-07-16T03:41:14.343Z,15.92
2018-07-16T03:42:15.247Z,15.93
2018-07-16T03:43:15.254Z,15.93
2018-07-16T03:44:15.250Z,15.98
2018-07-16T03:45:15.750Z,15.93
2018-07-16T03:46:15.754Z,15.93
2018-07-16T03:47:15.761Z,15.81
2018-07-16T03:48:15.752Z,15.86
2018-07-16T03:49:16.250Z,15.78
2018-07-16T03:50:15.488Z,15.77
2018-07-16T03:51:16.253Z,15.78
2018-07-16T03:52:16.250Z,15.76
2018-07-16T03:56:19.457Z,15.77
2018-07-16T03:57:19.453Z,15.88
2018-07-16T03:58:19.457Z,15.89
2018-07-16T03:59:19.953Z,15.89
2018-07-16T04:00:19.954Z,15.92
2018-07-16T04:01:41.046Z,15.96
2018-07-16T04:02:19.963Z,15.96
2018-07-16T04:03:20.454Z,15.92
2018-07-16T04:05:51.833Z,15.77
2018-07-16T04:07:12.842Z,15.77
2018-07-16T04:07:51.319Z,15.81
2018-07-16T04:10:44.570Z,15.80
2018-07-16T04:11:23.602Z,15.85
2018-07-16T04:12:44.577Z,15.86
2018-07-16T04:13:24.079Z,15.88
2018-07-16T04:14:45.076Z,15.92
2018-07-16T04:15:24.077Z,15.89
2018-07-16T04:16:24.077Z,15.98
2018-07-16T04:17:24.582Z,15.95
2018-07-16T04:18:45.578Z,15.95
2018-07-16T04:19:23.931Z,15.91
2018-07-16T04:20:26.579Z,15.92
2018-07-16T04:21:46.077Z,15.85
2018-07-16T04:22:46.077Z,15.95
2018-07-16T04:23:25.120Z,15.91
2018-07-16T04:24:25.085Z,15.92
2018-07-16T04:26:57.324Z,15.95
2018-07-16T04:27:57.331Z,15.95
2018-07-16T04:28:57.331Z,16.07
2018-07-16T04:29:57.331Z,16.04
2018-07-16T04:34:21.493Z,15.91
2018-07-16T04:35:21.505Z,16.06
2018-07-16T04:36:21.500Z,15.96
2018-07-16T04:38:32.257Z,15.95
2018-07-16T04:39:32.265Z,15.96
2018-07-16T04:40:32.265Z,15.93
2018-07-16T04:41:53.765Z,15.98
2018-07-16T04:44:04.148Z,15.92
2018-07-16T04:45:04.151Z,16.04
2018-07-16T04:46:04.154Z,15.93
2018-07-16T04:48:35.898Z,15.99
2018-07-16T04:49:35.910Z,15.95
2018-07-16T04:50:35.906Z,16.06
2018-07-16T04:51:36.404Z,16.06
2018-07-16T04:52:36.404Z,16.01
2018-07-16T04:53:36.403Z,16.07
2018-07-16T04:54:57.404Z,16.10
2018-07-16T04:55:36.907Z,15.99
2018-07-16T04:56:37.902Z,16.06
2018-07-16T04:57:36.904Z,16.04
2018-07-16T04:58:36.905Z,16.06
2018-07-16T04:59:37.409Z,16.08
2018-07-16T05:05:13.660Z,16.22
2018-07-16T05:06:32.666Z,16.17
2018-07-16T05:07:11.662Z,16.11
2018-07-16T05:08:34.626Z,16.22
2018-07-16T05:09:34.122Z,16.10
2018-07-16T05:10:13.103Z,16.16
2018-07-16T05:11:12.165Z,16.25
2018-07-16T05:12:11.645Z,16.25
2018-07-16T05:13:32.741Z,16.33
2018-07-16T05:14:12.666Z,16.23
2018-07-16T05:15:35.099Z,16.34
2018-07-16T05:16:12.666Z,16.32
2018-07-16T05:17:12.018Z,16.32
2018-07-16T05:18:12.776Z,16.33
2018-07-16T05:19:13.165Z,16.40
2018-07-16T05:20:13.166Z,16.36
2018-07-16T05:21:13.166Z,16.45
2018-07-16T05:22:12.652Z,16.54
2018-07-16T05:23:34.672Z,16.50
2018-07-16T05:24:15.673Z,16.50
2018-07-16T05:25:13.013Z,16.52
2018-07-16T05:26:13.671Z,16.44
2018-07-16T05:27:14.167Z,16.50
2018-07-16T05:28:14.172Z,16.47
2018-07-16T05:29:13.533Z,16.57
2018-07-16T05:30:13.631Z,16.48
2018-07-16T05:31:15.605Z,16.52
2018-07-16T05:32:14.747Z,16.60
2018-07-16T05:33:20.666Z,16.55
2018-07-16T05:35:46.183Z,16.67
2018-07-16T05:36:46.190Z,16.66
2018-07-16T05:37:46.192Z,16.63
2018-07-16T05:38:46.701Z,16.78
2018-07-16T05:39:46.690Z,16.82
2018-07-16T05:40:46.691Z,16.80
2018-07-16T05:41:46.692Z,16.95
2018-07-16T05:42:47.204Z,16.98
2018-07-16T05:43:46.466Z,17.05
2018-07-16T05:44:50.122Z,17.12
2018-07-16T05:45:46.672Z,17.17
2018-07-16T05:46:47.693Z,17.15
2018-07-16T05:47:49.123Z,17.12
2018-07-16T05:49:08.693Z,17.18
2018-07-16T05:49:47.694Z,17.17
2018-07-16T05:51:08.288Z,17.18
2018-07-16T05:52:09.190Z,17.21
2018-07-16T05:53:09.192Z,17.27
2018-07-16T05:54:09.193Z,17.12
2018-07-16T05:54:49.622Z,17.20
2018-07-16T05:56:09.691Z,17.18
2018-07-16T05:57:09.691Z,17.15
2018-07-16T05:58:09.702Z,17.15
2018-07-16T05:58:49.196Z,17.21
2018-07-16T06:00:10.195Z,17.22
2018-07-16T06:01:10.193Z,17.28
2018-07-16T06:01:55.691Z,17.30
2018-07-16T06:02:48.791Z,17.30
2018-07-16T06:04:10.700Z,17.39
2018-07-16T06:04:49.757Z,17.43
2018-07-16T06:07:21.387Z,17.55
2018-07-16T06:08:21.391Z,17.60
2018-07-16T06:09:21.370Z,17.65
2018-07-16T06:10:21.873Z,17.66
2018-07-16T06:11:23.903Z,17.74
2018-07-16T06:12:21.870Z,17.71
2018-07-16T06:13:21.870Z,17.73
2018-07-16T06:16:00.118Z,17.91
2018-07-16T06:17:16.101Z,17.91
2018-07-16T06:18:15.122Z,17.94
2018-07-16T06:18:54.121Z,18.07
2018-07-16T06:22:57.312Z,18.38
2018-07-16T06:23:58.335Z,18.41
2018-07-16T06:24:59.241Z,18.60
2018-07-16T06:29:00.473Z,18.83
2018-07-16T06:29:59.824Z,18.91
2018-07-16T06:31:00.487Z,18.93
2018-07-16T06:32:14.976Z,18.99
2018-07-16T06:36:24.792Z,19.42
2018-07-16T06:37:25.844Z,19.49
2018-07-16T06:38:03.798Z,19.50
2018-07-16T06:39:25.266Z,19.58
2018-07-16T06:40:25.452Z,19.62
2018-07-16T06:41:04.614Z,19.75
2018-07-16T06:42:05.262Z,19.78
2018-07-16T06:44:57.009Z,19.98
2018-07-16T06:45:37.013Z,20.15
2018-07-16T06:46:36.021Z,20.17
2018-07-16T06:49:16.701Z,20.25
2018-07-16T06:50:21.781Z,20.34
2018-07-16T06:51:28.766Z,20.37
2018-07-16T06:53:40.029Z,20.69
2018-07-16T06:55:00.370Z,20.57
2018-07-16T06:56:02.968Z,20.71
2018-07-16T06:58:32.814Z,20.90
2018-07-16T06:59:13.853Z,20.94
2018-07-16T07:00:32.821Z,20.94
2018-07-16T07:01:13.345Z,20.98
2018-07-16T07:02:26.409Z,21.01
2018-07-16T07:03:11.670Z,21.13
2018-07-16T07:04:12.321Z,21.16
2018-07-16T07:05:12.821Z,21.24
2018-07-16T07:06:33.815Z,21.40
2018-07-16T07:07:13.754Z,21.38
2018-07-16T07:08:12.822Z,21.45
2018-07-16T07:09:13.785Z,21.55
2018-07-16T07:10:27.327Z,21.63
2018-07-16T07:11:13.328Z,21.63
2018-07-16T07:12:34.328Z,21.71
2018-07-16T07:13:13.822Z,21.86
2018-07-16T07:17:15.949Z,21.89
2018-07-16T07:18:18.009Z,21.89
2018-07-16T07:19:16.662Z,21.96
2018-07-16T07:20:17.156Z,21.99
2018-07-16T07:21:19.156Z,22.02
2018-07-16T07:22:17.157Z,22.05
2018-07-16T07:23:16.631Z,22.20
2018-07-16T07:24:31.657Z,22.24
2018-07-16T07:25:19.142Z,22.36
2018-07-16T07:27:17.656Z,22.42
2018-07-16T07:28:19.122Z,22.49
2018-07-16T07:29:17.231Z,22.61
2018-07-16T07:30:38.349Z,22.67
2018-07-16T07:31:19.595Z,22.78
2018-07-16T07:32:24.156Z,22.79
2018-07-16T07:33:24.657Z,22.84
2018-07-16T07:34:20.674Z,22.93
2018-07-16T07:35:18.737Z,22.79
2018-07-16T07:36:19.589Z,22.82
2018-07-16T07:38:50.403Z,23.09
2018-07-16T07:39:49.756Z,23.06
2018-07-16T07:41:11.411Z,23.21
2018-07-16T07:42:11.911Z,23.16
2018-07-16T07:43:11.918Z,23.19
2018-07-16T07:46:53.876Z,23.42
2018-07-16T07:47:53.883Z,23.49
2018-07-16T07:48:53.883Z,23.47
2018-07-16T07:51:24.915Z,23.71
2018-07-16T07:52:25.651Z,23.87
2018-07-16T07:53:25.649Z,23.86
2018-07-16T07:54:25.270Z,23.97
2018-07-16T07:57:20.526Z,24.24
2018-07-16T07:57:57.477Z,24.37
2018-07-16T07:58:58.448Z,24.48
2018-07-16T07:59:58.016Z,24.48
2018-07-16T08:02:35.405Z,24.68
2018-07-16T08:03:28.796Z,24.82
2018-07-16T08:04:30.847Z,24.87
2018-07-16T08:05:34.344Z,24.87
2018-07-16T08:08:22.231Z,24.94
2018-07-16T08:13:34.954Z,25.30
2018-07-16T08:14:35.649Z,25.29
2018-07-16T08:15:35.649Z,25.36
2018-07-16T08:16:57.148Z,25.49
2018-07-16T08:17:36.150Z,25.53
2018-07-16T08:18:35.501Z,25.44
2018-07-16T08:19:36.151Z,25.48
2018-07-16T08:20:38.116Z,25.66
2018-07-16T08:21:36.649Z,25.67
2018-07-16T08:22:36.651Z,25.61
2018-07-16T08:23:36.692Z,25.56
2018-07-16T08:24:37.150Z,25.48
2018-07-16T08:25:36.398Z,25.56
2018-07-16T08:26:37.149Z,25.67
2018-07-16T08:27:37.154Z,25.59
2018-07-16T08:31:41.280Z,25.94
2018-07-16T08:33:02.346Z,25.96
2018-07-16T08:33:40.358Z,26.01
2018-07-16T08:34:40.855Z,26.11
2018-07-16T08:35:40.850Z,26.03
2018-07-16T08:38:12.191Z,25.86
2018-07-16T08:39:12.952Z,25.96
2018-07-16T08:40:13.352Z,26.08
2018-07-16T08:41:13.408Z,26.04
2018-07-16T08:42:13.409Z,26.21
2018-07-16T08:43:13.407Z,26.23
2018-07-16T08:44:12.764Z,26.13
2018-07-16T08:45:13.407Z,26.23
2018-07-16T08:46:13.926Z,26.28
2018-07-16T08:47:36.910Z,26.23
2018-07-16T08:48:13.918Z,26.32
2018-07-16T08:49:13.401Z,26.39
2018-07-16T08:50:14.413Z,26.36
2018-07-16T08:51:13.640Z,26.36
2018-07-16T08:52:14.409Z,26.53
2018-07-16T08:53:13.913Z,26.59
2018-07-16T08:56:07.181Z,26.71
2018-07-16T08:56:45.537Z,26.83
2018-07-16T08:57:45.641Z,26.84
2018-07-16T09:00:38.934Z,27.03
2018-07-16T09:04:21.203Z,27.08
2018-07-16T09:05:21.197Z,27.05
2018-07-16T09:06:21.194Z,27.18
2018-07-16T09:07:23.697Z,27.15
2018-07-16T09:08:21.695Z,27.18
2018-07-16T09:09:21.693Z,27.30
2018-07-16T09:10:27.694Z,27.28
2018-07-16T09:11:45.196Z,27.28
2018-07-16T09:12:22.194Z,27.35
2018-07-16T09:13:23.248Z,27.38
2018-07-16T09:14:22.194Z,27.42
2018-07-16T09:16:55.471Z,27.40
2018-07-16T09:17:53.985Z,27.45
2018-07-16T09:18:53.985Z,27.52
2018-07-16T09:24:34.976Z,27.65
2018-07-16T09:25:29.012Z,27.66
2018-07-16T09:28:02.685Z,27.66
2018-07-16T09:29:00.659Z,27.80
2018-07-16T09:30:21.659Z,27.93
2018-07-16T09:31:01.161Z,27.88
2018-07-16T09:32:07.168Z,27.99
2018-07-16T09:33:01.159Z,28.09
2018-07-16T09:34:01.159Z,28.08
2018-07-16T09:35:01.660Z,28.21
2018-07-16T09:36:27.591Z,28.09
2018-07-16T09:37:01.012Z,28.02
2018-07-16T09:39:35.377Z,28.14
2018-07-16T09:40:56.379Z,28.21
2018-07-16T09:41:54.379Z,28.20
2018-07-16T09:42:53.971Z,28.23
2018-07-16T09:43:33.121Z,28.17
2018-07-16T09:49:22.285Z,27.99
2018-07-16T09:50:08.298Z,28.03
2018-07-16T09:51:08.298Z,27.98
2018-07-16T09:53:46.558Z,28.06
2018-07-16T09:55:01.571Z,28.02
2018-07-16T09:56:01.599Z,28.14
2018-07-16T09:58:12.328Z,28.17
2018-07-16T09:59:26.341Z,28.14
2018-07-16T10:00:12.851Z,28.02
2018-07-16T10:01:35.847Z,28.13
2018-07-16T10:02:12.078Z,28.20
2018-07-16T10:03:12.835Z,28.15
2018-07-16T10:04:15.304Z,28.27
2018-07-16T10:05:13.840Z,28.39
2018-07-16T10:07:45.289Z,28.30
2018-07-16T10:08:59.243Z,28.35
2018-07-16T10:10:07.716Z,28.39
2018-07-16T10:12:16.765Z,28.32
2018-07-16T10:13:16.763Z,28.33
2018-07-16T10:14:16.775Z,28.35
2018-07-16T10:15:16.397Z,28.40
2018-07-16T10:16:19.741Z,28.51
2018-07-16T10:17:17.263Z,28.62
2018-07-16T10:18:17.262Z,28.73
2018-07-16T10:19:20.695Z,28.77
2018-07-16T10:20:17.772Z,28.79
2018-07-16T10:21:38.137Z,28.85
2018-07-16T10:22:17.764Z,28.82
2018-07-16T10:23:18.263Z,28.82
2018-07-16T10:24:19.696Z,29.02
2018-07-16T10:28:35.229Z,29.10
2018-07-16T10:29:35.226Z,29.10
2018-07-16T10:30:27.216Z,29.18
2018-07-16T10:31:23.723Z,29.36
2018-07-16T10:35:23.892Z,29.35
2018-07-16T10:36:24.568Z,29.32
2018-07-16T10:37:27.077Z,29.49
2018-07-16T10:38:46.102Z,29.47
2018-07-16T10:39:27.080Z,29.48
2018-07-16T10:40:25.072Z,29.48
2018-07-16T10:45:11.080Z,29.21
2018-07-16T10:54:26.339Z,29.63
2018-07-16T10:55:03.881Z,29.60
2018-07-16T10:56:03.858Z,29.66
2018-07-16T10:57:06.369Z,29.71
2018-07-16T10:58:04.359Z,29.67
2018-07-16T10:59:25.355Z,29.76
2018-07-16T11:01:10.868Z,29.89
2018-07-16T11:02:28.861Z,29.97
2018-07-16T11:04:58.316Z,30.16
2018-07-16T11:07:28.159Z,29.94
2018-07-16T11:08:09.863Z,30.03
2018-07-16T11:09:07.922Z,30.19
2018-07-16T11:12:51.219Z,30.48
2018-07-16T11:13:59.656Z,30.54
2018-07-16T11:14:37.224Z,30.51
2018-07-16T11:15:59.223Z,30.57
2018-07-16T11:16:58.735Z,30.60
2018-07-16T11:17:37.726Z,30.57
2018-07-16T11:19:04.726Z,30.59
2018-07-16T11:19:37.727Z,30.63
2018-07-16T11:20:38.224Z,30.83
2018-07-16T11:21:39.233Z,30.76
2018-07-16T11:22:38.315Z,30.61
2018-07-16T11:23:38.248Z,30.60
2018-07-16T11:24:38.727Z,30.70
2018-07-16T11:25:58.965Z,30.72
2018-07-16T11:26:38.744Z,30.64
2018-07-16T11:27:38.726Z,30.79
2018-07-16T11:28:47.158Z,30.70
2018-07-16T11:29:38.503Z,30.94
2018-07-16T11:30:38.613Z,31.03
2018-07-16T11:31:38.747Z,31.20
2018-07-16T11:37:15.909Z,31.25
2018-07-16T11:38:15.936Z,31.13
2018-07-16T11:39:13.936Z,31.15
2018-07-16T11:40:16.436Z,31.20
2018-07-16T11:42:46.344Z,31.40
2018-07-16T11:43:46.349Z,31.28
2018-07-16T11:45:07.410Z,31.54
2018-07-16T11:47:24.067Z,31.82
2018-07-16T11:48:38.429Z,31.99
2018-07-16T11:49:18.178Z,31.88
2018-07-16T11:50:20.581Z,31.76
2018-07-16T11:51:18.588Z,31.95
2018-07-16T11:52:18.646Z,31.84
2018-07-16T11:53:18.061Z,31.97
2018-07-16T11:55:50.438Z,31.98
2018-07-16T11:57:10.711Z,31.95
2018-07-16T11:57:50.372Z,31.99
2018-07-16T12:01:53.643Z,31.92
2018-07-16T12:03:15.630Z,31.94
2018-07-16T12:03:53.634Z,31.98
2018-07-16T12:04:56.135Z,31.88
2018-07-16T12:05:54.141Z,31.99
2018-07-16T12:06:58.073Z,31.92
2018-07-16T12:07:54.136Z,31.79
2018-07-16T12:09:08.635Z,31.64
2018-07-16T12:11:26.039Z,31.46
2018-07-16T12:12:25.497Z,31.49
2018-07-16T12:13:26.046Z,31.40
2018-07-16T12:14:49.026Z,31.41
2018-07-16T12:16:57.926Z,31.01
2018-07-16T12:17:57.929Z,30.90
2018-07-16T12:18:59.364Z,30.72
2018-07-16T12:21:28.975Z,30.56
2018-07-16T12:22:29.108Z,30.32
2018-07-16T12:23:29.708Z,30.23
2018-07-16T12:26:07.492Z,29.88
2018-07-16T12:27:01.498Z,29.58
2018-07-16T12:28:01.507Z,29.45
2018-07-16T12:29:22.999Z,29.30
2018-07-16T12:33:06.841Z,28.89
2018-07-16T12:35:43.313Z,28.60
2018-07-16T12:36:36.384Z,28.32
2018-07-16T12:37:36.384Z,28.14
2018-07-16T12:40:10.141Z,27.88
2018-07-16T12:41:08.190Z,27.84
2018-07-16T12:42:35.690Z,27.74
2018-07-16T12:43:29.695Z,27.49
2018-07-16T12:44:29.693Z,27.38
2018-07-16T12:45:08.693Z,27.39
2018-07-16T12:49:13.909Z,26.97
2018-07-16T12:50:35.848Z,26.73
2018-07-16T12:51:12.848Z,26.51
2018-07-16T12:52:32.502Z,26.38
2018-07-16T12:53:14.416Z,26.34
2018-07-16T12:54:34.849Z,26.04
2018-07-16T12:55:12.417Z,25.81
2018-07-16T12:56:14.918Z,25.61
2018-07-16T12:57:12.173Z,25.01
2018-07-16T12:58:12.917Z,24.55
2018-07-16T12:59:12.918Z,24.24
2018-07-16T13:00:19.417Z,23.96
2018-07-16T13:02:45.323Z,24.11
2018-07-16T13:03:44.805Z,24.16
2018-07-16T13:04:47.827Z,23.99
2018-07-16T13:05:47.784Z,23.69
2018-07-16T13:06:45.828Z,23.44
2018-07-16T13:07:45.825Z,23.07
2018-07-16T13:09:13.329Z,22.84
2018-07-16T13:10:00.339Z,22.46
2018-07-16T13:11:07.328Z,22.48
2018-07-16T13:12:09.294Z,22.52
2018-07-16T13:14:18.072Z,22.84
2018-07-16T13:15:18.084Z,23.04
2018-07-16T13:16:39.086Z,23.22
2018-07-16T13:20:27.326Z,25.94
2018-07-16T13:21:44.337Z,26.09
2018-07-16T13:22:21.323Z,26.29
2018-07-16T13:23:23.824Z,26.56
2018-07-16T13:25:59.221Z,26.78
2018-07-16T13:26:53.229Z,26.68
2018-07-16T13:28:14.229Z,26.46
2018-07-16T13:28:52.829Z,26.19
2018-07-16T13:31:27.084Z,25.75
2018-07-16T13:32:25.620Z,25.76
2018-07-16T13:34:57.127Z,25.66
2018-07-16T13:35:57.138Z,25.74
2018-07-16T13:36:57.145Z,25.97
2018-07-16T13:37:57.632Z,26.09
2018-07-16T13:42:00.493Z,26.75
2018-07-16T13:42:59.867Z,26.83
2018-07-16T13:44:00.498Z,26.90
2018-07-16T13:45:01.006Z,26.83
2018-07-16T13:47:34.401Z,26.88
2018-07-16T13:48:32.408Z,26.79
2018-07-16T13:49:59.405Z,26.72
2018-07-16T13:50:32.014Z,26.78
2018-07-16T13:51:32.907Z,26.81
2018-07-16T13:52:32.260Z,26.96
2018-07-16T13:53:32.910Z,27.11
2018-07-16T13:54:33.422Z,27.24
2018-07-16T13:55:55.844Z,27.45
2018-07-16T13:56:54.466Z,27.58
2018-07-16T13:57:34.840Z,27.55
2018-07-16T13:58:33.008Z,27.48
2018-07-16T13:59:54.911Z,27.42
2018-07-16T14:00:33.910Z,27.40
2018-07-16T14:01:33.910Z,27.39
2018-07-16T14:02:34.410Z,27.33
2018-07-16T14:03:34.409Z,27.28
2018-07-16T14:04:55.409Z,27.34
2018-07-16T14:05:34.415Z,27.31
2018-07-16T14:06:34.908Z,27.28
2018-07-16T14:07:34.908Z,27.43
2018-07-16T14:08:34.909Z,27.58
2018-07-16T14:09:34.909Z,27.69
2018-07-16T14:10:35.410Z,27.84
2018-07-16T14:11:56.412Z,28.03
2018-07-16T14:12:35.409Z,28.11
2018-07-16T14:13:35.412Z,28.06
2018-07-16T14:19:10.385Z,30.56
2018-07-16T14:20:10.392Z,30.28
2018-07-16T14:21:10.895Z,30.23
2018-07-16T14:22:10.894Z,30.10
2018-07-16T14:23:10.897Z,29.62
2018-07-16T14:24:12.354Z,29.42
2018-07-16T14:25:10.907Z,29.41
2018-07-16T14:28:03.694Z,30.61
2018-07-16T14:28:42.704Z,31.16
2018-07-16T14:29:42.700Z,30.64
2018-07-16T14:30:49.200Z,30.30
2018-07-16T14:32:03.482Z,30.34
2018-07-16T14:32:43.208Z,30.75
2018-07-16T14:33:43.200Z,31.04
2018-07-16T14:35:03.795Z,31.54
2018-07-16T14:37:15.079Z,32.14
2018-07-16T14:38:35.422Z,32.50
2018-07-16T14:39:15.107Z,32.69
2018-07-16T14:40:15.586Z,32.81
2018-07-16T14:41:17.044Z,33.31
2018-07-16T14:42:14.926Z,33.40
2018-07-16T14:43:15.586Z,33.93
2018-07-16T14:44:23.084Z,34.36
2018-07-16T14:45:16.087Z,34.58
2018-07-16T14:46:16.087Z,34.84
2018-07-16T14:47:16.086Z,34.88
2018-07-16T14:52:56.778Z,33.71
2018-07-16T14:54:11.785Z,33.86
2018-07-16T14:55:04.784Z,34.00
2018-07-16T14:55:58.217Z,33.99
2018-07-16T14:57:12.342Z,34.01
2018-07-16T14:58:12.285Z,33.82
2018-07-16T14:59:13.741Z,33.96
2018-07-16T15:01:05.717Z,34.19
2018-07-16T15:01:51.137Z,34.30
2018-07-16T15:02:53.217Z,34.38
2018-07-16T15:05:23.586Z,33.43
2018-07-16T15:06:23.602Z,32.91
2018-07-16T15:07:25.032Z,33.03
2018-07-16T15:08:24.110Z,32.69
2018-07-16T15:10:55.532Z,31.84
2018-07-16T15:11:54.893Z,31.65
2018-07-16T15:12:55.539Z,31.18
2018-07-16T15:13:56.067Z,31.37
2018-07-16T15:14:55.297Z,31.45
2018-07-16T15:15:56.047Z,31.74
2018-07-16T15:16:56.040Z,31.75
2018-07-16T15:18:17.542Z,31.88
2018-07-16T15:18:57.972Z,31.31
2018-07-16T15:19:57.992Z,31.41
2018-07-16T15:20:56.722Z,31.54
2018-07-16T15:21:59.041Z,31.35
2018-07-16T15:22:57.041Z,31.18
2018-07-16T15:24:18.039Z,30.97
2018-07-16T15:26:28.715Z,30.42
2018-07-16T15:27:28.723Z,30.23
2018-07-16T15:28:28.722Z,29.91
2018-07-16T15:29:28.335Z,29.66
2018-07-16T15:30:28.753Z,29.69
2018-07-16T15:31:29.229Z,29.62
2018-07-16T15:32:49.691Z,29.54
2018-07-16T15:33:29.723Z,29.25
2018-07-16T15:34:31.723Z,28.92
2018-07-16T15:35:31.771Z,28.87
2018-07-16T15:36:50.204Z,28.82
2018-07-16T15:37:44.223Z,28.60
2018-07-16T15:38:36.223Z,28.27
2018-07-16T15:39:30.222Z,27.78
2018-07-16T15:40:30.220Z,27.62
2018-07-16T15:42:05.723Z,27.28
2018-07-16T15:42:53.203Z,27.03
2018-07-16T15:43:32.155Z,26.65
2018-07-16T15:44:51.723Z,26.24
2018-07-16T15:47:02.515Z,25.45
2018-07-16T15:49:55.529Z,25.07
2018-07-16T15:50:34.534Z,24.99
2018-07-16T15:51:35.533Z,24.94
2018-07-16T15:52:34.533Z,24.80
2018-07-16T15:53:41.092Z,24.77
2018-07-16T15:54:35.034Z,24.68
2018-07-16T15:55:35.033Z,24.64
2018-07-16T15:56:35.040Z,24.55
2018-07-16T15:57:56.535Z,24.53
2018-07-16T15:58:35.538Z,24.52
2018-07-16T15:59:35.536Z,24.45
2018-07-16T16:00:37.015Z,24.44
2018-07-16T16:01:36.034Z,24.31
2018-07-16T16:02:36.033Z,24.23
2018-07-16T16:03:35.403Z,24.27
2018-07-16T16:04:36.036Z,24.26
2018-07-16T16:05:36.538Z,24.26
2018-07-16T16:06:50.535Z,24.18
2018-07-16T16:07:36.535Z,24.15
2018-07-16T16:08:36.028Z,24.21
2018-07-16T16:09:36.157Z,24.21
2018-07-16T16:10:37.035Z,24.16
2018-07-16T16:11:37.035Z,24.15
2018-07-16T16:12:37.038Z,24.23
2018-07-16T16:18:25.654Z,25.35
2018-07-16T16:19:11.661Z,25.45
2018-07-16T16:20:11.662Z,25.48
2018-07-16T16:21:12.160Z,25.49
2018-07-16T16:22:34.593Z,25.38
2018-07-16T16:23:12.223Z,25.30
2018-07-16T16:24:33.161Z,25.11
2018-07-16T16:25:12.168Z,25.05
2018-07-16T16:27:43.946Z,24.82
2018-07-16T16:28:45.392Z,24.77
2018-07-16T16:29:43.953Z,24.63